Time;durP1;ratioP1;P1;durP2;ratioP2;P2;SDS_P1;SDS_P2;PMS_P1;PMS_P2;Temp;Humidity;BMP_temperature;BMP_pressure;BME280_temperature;BME280_humidity;BME280_pressure;Samples;Min_cycle;Max_cycle;Signal;HPM_P1;HPM_P2
2021/01/16 00:00:35;;;;;;;21.40;9.63;;;0.90;99.90;;;;;;5004890;28;20061;-68
2021/01/16 00:03:01;;;;;;;22.40;9.43;;;0.80;99.90;;;;;;5003540;28;20492;-69
2021/01/16 00:05:30;;;;;;;20.10;8.73;;;0.80;99.90;;;;;;5024859;28;20516;-72
2021/01/16 00:08:02;;;;;;;20.23;9.57;;;0.70;99.90;;;;;;5025505;28;20103;-69
2021/01/16 00:10:29;;;;;;;17.93;9.37;;;0.80;99.90;;;;;;5025175;28;20061;-70
2021/01/16 00:12:56;;;;;;;21.07;10.07;;;0.80;99.90;;;;;;5023898;28;20050;-73
2021/01/16 00:15:23;;;;;;;17.20;8.03;;;0.80;99.90;;;;;;5025348;28;20053;-74
2021/01/16 00:17:58;;;;;;;24.03;10.40;;;0.80;99.90;;;;;;5024864;28;20045;-69
2021/01/16 00:20:25;;;;;;;19.97;8.50;;;0.60;99.90;;;;;;5025373;28;20053;-72
2021/01/16 00:22:51;;;;;;;22.07;9.87;;;0.50;99.90;;;;;;5009527;28;20054;-71
2021/01/16 00:25:19;;;;;;;20.93;9.80;;;0.70;99.90;;;;;;5005685;28;20108;-68
2021/01/16 00:27:46;;;;;;;20.37;9.40;;;0.70;99.90;;;;;;5021771;28;20705;-70
2021/01/16 00:30:14;;;;;;;25.10;11.33;;;0.60;99.90;;;;;;5005063;28;20492;-68
2021/01/16 00:32:41;;;;;;;24.43;10.63;;;0.80;99.90;;;;;;5012315;28;20096;-69
2021/01/16 00:35:09;;;;;;;19.53;9.73;;;0.60;99.90;;;;;;5004956;28;20056;-69
2021/01/16 00:37:36;;;;;;;22.20;9.97;;;0.70;99.90;;;;;;5005115;28;20077;-69
2021/01/16 00:40:05;;;;;;;23.57;10.47;;;0.60;99.90;;;;;;5004697;28;20120;-71
2021/01/16 00:42:32;;;;;;;22.67;9.43;;;0.60;99.90;;;;;;5004513;28;20049;-70
2021/01/16 00:44:59;;;;;;;21.57;10.50;;;0.60;99.90;;;;;;5004199;28;20050;-72
2021/01/16 00:47:25;;;;;;;23.03;10.70;;;0.70;99.90;;;;;;5005302;28;20045;-69
2021/01/16 00:49:52;;;;;;;22.87;10.00;;;0.70;99.90;;;;;;5008787;28;20054;-69
2021/01/16 00:52:18;;;;;;;22.97;10.03;;;0.70;99.90;;;;;;5003982;28;20054;-68
2021/01/16 00:54:45;;;;;;;22.20;10.43;;;0.70;99.90;;;;;;5019359;28;20450;-71
2021/01/16 00:57:11;;;;;;;24.63;11.40;;;0.70;99.90;;;;;;5019369;28;20054;-73
2021/01/16 00:59:39;;;;;;;28.97;11.83;;;0.70;99.90;;;;;;5003882;28;20089;-70
2021/01/16 01:02:05;;;;;;;23.93;10.77;;;0.80;99.90;;;;;;5002152;28;20093;-69
2021/01/16 01:04:32;;;;;;;23.53;9.73;;;0.70;99.90;;;;;;5002946;28;20846;-69
2021/01/16 01:07:00;;;;;;;22.50;10.53;;;0.70;99.90;;;;;;5004558;28;20060;-73
2021/01/16 01:09:27;;;;;;;23.93;10.40;;;0.60;99.90;;;;;;4998601;28;20053;-72
2021/01/16 01:11:54;;;;;;;22.57;10.10;;;0.80;99.90;;;;;;4998162;28;20064;-72
2021/01/16 01:14:20;;;;;;;24.87;11.00;;;0.80;99.90;;;;;;4994341;28;20050;-68
2021/01/16 01:16:48;;;;;;;22.80;10.63;;;0.80;99.90;;;;;;5003081;28;20058;-69
2021/01/16 01:19:14;;;;;;;20.67;9.87;;;0.70;99.90;;;;;;5004107;28;20531;-70
2021/01/16 01:21:41;;;;;;;21.43;10.10;;;0.70;99.90;;;;;;4990072;28;20294;-72
2021/01/16 01:24:08;;;;;;;23.13;10.30;;;0.80;99.90;;;;;;4999062;28;20108;-68
2021/01/16 01:26:38;;;;;;;25.73;10.70;;;0.70;99.90;;;;;;4995250;28;20061;-68
2021/01/16 01:29:04;;;;;;;26.97;12.07;;;0.60;99.90;;;;;;4987353;28;20056;-69
2021/01/16 01:31:31;;;;;;;25.77;10.87;;;0.60;99.90;;;;;;4999268;28;20046;-73
2021/01/16 01:33:59;;;;;;;26.30;12.30;;;0.80;99.90;;;;;;5002225;28;20081;-68
2021/01/16 01:36:25;;;;;;;22.60;11.03;;;0.70;99.90;;;;;;4992505;28;20505;-69
2021/01/16 01:38:52;;;;;;;22.60;10.40;;;0.70;99.90;;;;;;5006681;28;20050;-69
2021/01/16 01:41:19;;;;;;;29.13;12.60;;;0.60;99.90;;;;;;5006469;28;20065;-72
2021/01/16 01:43:45;;;;;;;27.13;11.67;;;0.70;99.90;;;;;;5004049;28;20054;-70
2021/01/16 01:46:12;;;;;;;24.07;10.97;;;0.70;99.90;;;;;;5006952;28;20056;-68
2021/01/16 01:48:38;;;;;;;25.53;11.33;;;0.60;99.90;;;;;;5006684;28;20107;-68
2021/01/16 01:51:06;;;;;;;24.53;11.57;;;0.70;99.90;;;;;;5005537;28;20459;-69
2021/01/16 01:53:36;;;;;;;24.30;11.07;;;0.60;99.90;;;;;;5005111;28;20119;-68
2021/01/16 01:56:04;;;;;;;26.63;11.60;;;0.60;99.90;;;;;;5006266;28;20065;-70
2021/01/16 01:58:32;;;;;;;29.07;11.63;;;0.60;99.90;;;;;;5006309;28;20049;-72
2021/01/16 02:00:59;;;;;;;26.03;11.83;;;0.70;99.90;;;;;;5004359;28;20064;-74
2021/01/16 02:03:26;;;;;;;23.70;10.10;;;0.60;99.90;;;;;;5010340;28;20045;-72
2021/01/16 02:05:56;;;;;;;25.03;11.03;;;0.80;99.90;;;;;;5011525;28;20722;-71
2021/01/16 02:08:24;;;;;;;23.73;9.90;;;0.80;99.90;;;;;;5012456;28;20049;-69
2021/01/16 02:10:51;;;;;;;21.67;9.73;;;0.70;99.90;;;;;;5011465;28;20054;-68
2021/01/16 02:13:18;;;;;;;22.40;10.03;;;0.70;99.90;;;;;;5004991;28;20535;-71
2021/01/16 02:15:50;;;;;;;27.33;11.00;;;0.70;99.90;;;;;;5006127;28;20045;-69
2021/01/16 02:18:25;;;;;;;22.60;10.47;;;0.70;99.90;;;;;;5004025;28;20056;-69
2021/01/16 02:20:54;;;;;;;21.73;10.30;;;0.70;99.90;;;;;;5004282;28;20050;-69
2021/01/16 02:23:32;;;;;;;23.53;9.73;;;0.70;99.90;;;;;;5002505;28;20104;-69
2021/01/16 02:26:44;;;;;;;20.77;10.90;;;0.70;99.90;;;;;;5004623;28;20056;-70
2021/01/16 02:29:11;;;;;;;23.37;9.17;;;0.70;99.90;;;;;;5004104;28;20049;-73
2021/01/16 02:31:40;;;;;;;21.10;9.67;;;0.60;99.90;;;;;;5003695;28;20050;-69
2021/01/16 02:34:11;;;;;;;19.07;9.07;;;0.70;99.90;;;;;;5002476;28;20053;-73
2021/01/16 02:36:54;;;;;;;22.20;9.40;;;0.60;99.90;;;;;;5003360;28;20428;-68
2021/01/16 02:39:28;;;;;;;19.43;8.83;;;0.60;99.90;;;;;;5004102;28;20054;-74
2021/01/16 02:41:59;;;;;;;18.90;9.07;;;0.50;99.90;;;;;;5003248;28;20057;-68
2021/01/16 02:44:42;;;;;;;25.53;9.93;;;0.70;99.90;;;;;;5003239;28;20046;-74
2021/01/16 02:47:16;;;;;;;21.53;9.17;;;0.70;99.90;;;;;;5004026;28;20049;-70
2021/01/16 02:49:51;;;;;;;24.50;9.73;;;0.60;99.90;;;;;;5023045;28;20466;-69
2021/01/16 02:52:20;;;;;;;21.20;9.77;;;0.60;99.90;;;;;;5001066;28;20504;-68
2021/01/16 02:54:48;;;;;;;25.57;9.83;;;0.80;99.90;;;;;;5004114;28;20049;-68
2021/01/16 02:57:15;;;;;;;22.53;9.73;;;0.70;99.90;;;;;;5003538;28;20050;-69
2021/01/16 02:59:44;;;;;;;21.90;10.93;;;0.70;99.90;;;;;;5002755;28;20096;-68
2021/01/16 03:02:12;;;;;;;25.77;10.60;;;0.70;99.90;;;;;;5002155;28;20407;-68
2021/01/16 03:04:39;;;;;;;23.87;10.20;;;0.70;99.90;;;;;;5002139;28;20916;-70
2021/01/16 03:07:07;;;;;;;20.77;9.70;;;0.70;99.90;;;;;;5003755;28;20054;-70
2021/01/16 03:09:35;;;;;;;23.80;10.90;;;0.70;99.90;;;;;;5007403;28;20104;-71
2021/01/16 03:12:02;;;;;;;21.07;9.10;;;0.70;99.90;;;;;;5006483;28;20504;-71
2021/01/16 03:14:34;;;;;;;24.60;10.53;;;0.50;99.90;;;;;;5001490;28;20110;-68
2021/01/16 03:17:09;;;;;;;17.87;9.27;;;0.60;99.90;;;;;;5007394;28;20711;-72
2021/01/16 03:19:37;;;;;;;23.40;9.80;;;0.60;99.90;;;;;;5006113;28;20057;-68
2021/01/16 03:22:18;;;;;;;23.10;11.13;;;0.60;99.90;;;;;;5005631;28;20058;-73
2021/01/16 03:24:45;;;;;;;24.07;9.80;;;0.70;99.90;;;;;;4998427;28;20716;-69
2021/01/16 03:27:12;;;;;;;21.43;9.73;;;0.60;99.90;;;;;;4999584;28;20050;-71
2021/01/16 03:29:39;;;;;;;23.07;9.53;;;0.50;99.90;;;;;;5005742;28;20050;-72
2021/01/16 03:32:07;;;;;;;20.20;9.70;;;0.60;99.90;;;;;;5006366;28;20519;-71
2021/01/16 03:34:34;;;;;;;18.63;8.93;;;0.70;99.90;;;;;;5004521;28;20049;-73
2021/01/16 03:37:00;;;;;;;22.77;9.17;;;0.60;99.90;;;;;;5005977;28;20050;-69
2021/01/16 03:39:27;;;;;;;21.93;9.10;;;0.60;99.90;;;;;;5005565;28;20050;-69
2021/01/16 03:41:54;;;;;;;21.57;9.60;;;0.50;99.90;;;;;;5003820;28;20050;-74
2021/01/16 03:44:21;;;;;;;22.63;9.90;;;0.40;99.90;;;;;;4986224;28;20046;-70
2021/01/16 03:46:48;;;;;;;21.00;8.70;;;0.40;99.90;;;;;;5009429;28;20050;-68
2021/01/16 03:49:15;;;;;;;22.20;9.67;;;0.50;99.90;;;;;;5005667;28;20523;-71
2021/01/16 03:51:42;;;;;;;18.73;8.33;;;0.40;99.90;;;;;;5005910;28;20057;-69
2021/01/16 03:54:09;;;;;;;20.30;8.40;;;0.40;99.90;;;;;;5003984;28;20061;-71
2021/01/16 03:56:35;;;;;;;19.67;8.47;;;0.50;99.90;;;;;;5005900;28;20049;-69
2021/01/16 03:59:02;;;;;;;18.37;8.73;;;0.50;99.90;;;;;;5004808;28;21372;-69
2021/01/16 04:01:29;;;;;;;18.17;8.37;;;0.50;99.90;;;;;;4986332;28;20057;-71
2021/01/16 04:03:56;;;;;;;22.97;10.03;;;0.50;99.90;;;;;;4984722;28;20046;-74
2021/01/16 04:06:24;;;;;;;21.77;9.23;;;0.50;99.90;;;;;;4989619;28;20049;-68
2021/01/16 04:08:50;;;;;;;22.90;9.87;;;0.50;99.90;;;;;;5005019;28;20049;-72
2021/01/16 04:11:17;;;;;;;21.17;9.17;;;0.50;99.90;;;;;;5005530;28;20129;-69
2021/01/16 04:13:43;;;;;;;17.43;8.30;;;0.50;99.90;;;;;;5004361;28;20057;-68
2021/01/16 04:16:10;;;;;;;18.40;8.03;;;0.50;99.90;;;;;;4997452;28;20049;-71
2021/01/16 04:18:36;;;;;;;20.33;8.50;;;0.20;99.90;;;;;;5011186;28;20042;-72
2021/01/16 04:21:04;;;;;;;18.27;8.23;;;0.30;99.90;;;;;;4994561;28;20104;-74
2021/01/16 04:23:31;;;;;;;17.63;8.47;;;0.30;99.90;;;;;;5003026;28;20049;-68
2021/01/16 04:25:58;;;;;;;19.80;8.47;;;0.40;99.90;;;;;;5004414;28;20492;-69
2021/01/16 04:28:25;;;;;;;20.13;8.57;;;0.30;99.90;;;;;;5005019;28;20058;-69
2021/01/16 04:30:52;;;;;;;17.07;7.97;;;0.30;99.90;;;;;;4996857;28;20053;-71
2021/01/16 04:33:18;;;;;;;16.33;6.87;;;0.30;99.90;;;;;;5003682;28;20065;-68
2021/01/16 04:35:45;;;;;;;15.73;7.33;;;0.30;99.90;;;;;;5004874;28;20043;-68
2021/01/16 04:38:12;;;;;;;16.33;7.40;;;0.20;99.90;;;;;;5004911;28;20112;-69
2021/01/16 04:40:40;;;;;;;15.10;6.73;;;0.30;99.90;;;;;;5004589;28;20062;-70
2021/01/16 04:43:06;;;;;;;15.77;6.97;;;0.20;99.90;;;;;;4998172;28;20398;-74
2021/01/16 04:45:33;;;;;;;17.50;7.77;;;0.20;99.90;;;;;;5002506;28;20052;-71
2021/01/16 04:48:01;;;;;;;15.50;7.57;;;0.10;99.90;;;;;;5006782;28;20054;-68
2021/01/16 04:50:30;;;;;;;17.43;7.50;;;0.20;99.90;;;;;;5003916;28;20054;-69
2021/01/16 04:53:02;;;;;;;15.77;7.30;;;0.20;99.90;;;;;;4998074;28;20050;-72
2021/01/16 04:55:32;;;;;;;17.90;7.73;;;0.30;99.90;;;;;;4991541;28;20081;-68
2021/01/16 04:58:08;;;;;;;15.40;6.87;;;0.10;99.90;;;;;;5004767;28;20767;-68
2021/01/16 05:00:36;;;;;;;16.17;6.90;;;0.20;99.90;;;;;;4995206;28;20049;-71
2021/01/16 05:03:08;;;;;;;16.77;7.00;;;0.00;99.90;;;;;;5002702;28;20096;-71
2021/01/16 05:05:39;;;;;;;15.07;6.87;;;0.20;99.90;;;;;;5004505;28;20050;-71
2021/01/16 05:08:07;;;;;;;15.23;6.80;;;0.00;99.90;;;;;;5001373;28;20046;-69
2021/01/16 05:10:40;;;;;;;15.87;6.80;;;0.10;99.90;;;;;;4991729;28;20051;-69
2021/01/16 05:13:17;;;;;;;15.23;7.10;;;0.10;99.90;;;;;;4995644;28;20483;-74
2021/01/16 05:15:45;;;;;;;15.97;6.63;;;0.20;99.90;;;;;;5004102;28;20424;-72
2021/01/16 05:18:13;;;;;;;15.70;7.13;;;0.10;99.90;;;;;;5017850;28;20049;-69
2021/01/16 05:20:41;;;;;;;14.53;6.37;;;0.00;99.90;;;;;;5014499;28;20061;-72
2021/01/16 05:23:18;;;;;;;15.40;7.20;;;0.10;99.90;;;;;;4983657;28;20520;-74
2021/01/16 05:25:47;;;;;;;;;;;0.10;99.90;;;;;;4995950;28;20049;-70
2021/01/16 05:28:17;;;;;;;17.13;6.90;;;0.10;99.90;;;;;;5004124;28;20303;-73
2021/01/16 05:30:55;;;;;;;15.47;6.43;;;0.10;99.90;;;;;;5003942;28;20053;-68
2021/01/16 05:33:23;;;;;;;16.43;7.67;;;0.10;99.90;;;;;;5003444;28;20155;-69
2021/01/16 05:35:51;;;;;;;19.83;7.80;;;0.20;99.90;;;;;;4996039;28;20492;-69
2021/01/16 05:38:23;;;;;;;17.63;7.50;;;0.20;99.90;;;;;;5003901;28;20050;-68
2021/01/16 05:40:50;;;;;;;16.03;6.83;;;0.00;99.90;;;;;;4991622;28;20049;-70
2021/01/16 05:43:20;;;;;;;15.20;7.00;;;0.00;99.90;;;;;;5003920;28;20210;-69
2021/01/16 05:45:51;;;;;;;13.47;6.13;;;0.00;99.90;;;;;;5011175;28;20057;-72
2021/01/16 05:48:17;;;;;;;17.57;6.57;;;0.00;99.90;;;;;;5012437;28;20208;-72
2021/01/16 05:50:44;;;;;;;14.33;6.67;;;0.10;99.90;;;;;;5010831;28;20046;-72
2021/01/16 05:53:11;;;;;;;15.13;6.40;;;0.20;99.90;;;;;;5003029;28;20053;-68
2021/01/16 05:55:37;;;;;;;15.33;6.80;;;0.10;99.90;;;;;;5004035;28;20049;-68
2021/01/16 05:58:05;;;;;;;15.97;6.90;;;0.20;99.90;;;;;;5004354;28;20399;-68
2021/01/16 06:00:37;;;;;;;16.87;7.17;;;0.10;99.90;;;;;;5004051;28;20056;-69
2021/01/16 06:03:06;;;;;;;17.73;6.80;;;0.20;99.90;;;;;;5003091;28;20060;-68
2021/01/16 06:05:34;;;;;;;15.70;6.67;;;0.10;99.90;;;;;;5002923;28;20050;-76
2021/01/16 06:08:01;;;;;;;12.73;5.70;;;0.10;99.90;;;;;;5003795;28;20253;-70
2021/01/16 06:10:31;;;;;;;14.60;6.30;;;0.10;99.90;;;;;;5003738;28;20050;-70
2021/01/16 06:13:12;;;;;;;13.87;6.57;;;0.10;99.90;;;;;;5002715;28;20046;-70
2021/01/16 06:15:43;;;;;;;14.13;6.40;;;0.10;99.90;;;;;;5004951;28;20080;-69
2021/01/16 06:18:17;;;;;;;13.80;6.10;;;0.00;99.90;;;;;;5003060;28;20060;-70
2021/01/16 06:20:50;;;;;;;13.60;6.30;;;-0.20;99.90;;;;;;5003933;28;20057;-73
2021/01/16 06:23:18;;;;;;;14.17;5.93;;;-0.10;99.90;;;;;;5002040;28;20135;-73
2021/01/16 06:25:50;;;;;;;14.50;6.40;;;0.10;99.90;;;;;;5003821;28;20050;-69
2021/01/16 06:28:18;;;;;;;15.23;6.33;;;0.00;99.90;;;;;;5003856;28;20500;-73
2021/01/16 06:30:48;;;;;;;12.47;6.10;;;0.00;99.90;;;;;;5002522;28;20129;-72
2021/01/16 06:33:22;;;;;;;15.63;6.20;;;-0.10;99.90;;;;;;5001686;28;20096;-70
2021/01/16 06:36:03;;;;;;;13.47;6.20;;;0.00;99.90;;;;;;5002014;28;20112;-72
2021/01/16 06:38:32;;;;;;;14.83;6.87;;;0.00;99.90;;;;;;5016971;28;20060;-71
2021/01/16 06:41:14;;;;;;;14.67;6.40;;;0.00;99.90;;;;;;5022436;28;20050;-68
2021/01/16 06:43:43;;;;;;;13.00;6.03;;;-0.10;99.90;;;;;;5022466;28;20049;-68
2021/01/16 06:46:13;;;;;;;17.33;7.53;;;-0.10;99.90;;;;;;5006510;28;20479;-73
2021/01/16 06:48:41;;;;;;;15.50;6.53;;;0.00;99.90;;;;;;5020593;28;20058;-69
2021/01/16 06:51:12;;;;;;;15.67;6.57;;;0.00;99.90;;;;;;5027129;28;20050;-68
2021/01/16 06:53:39;;;;;;;13.83;5.87;;;0.00;99.90;;;;;;5025097;28;20053;-73
2021/01/16 06:56:10;;;;;;;15.20;6.37;;;0.10;99.90;;;;;;5026939;28;20138;-68
2021/01/16 06:58:42;;;;;;;15.07;6.40;;;0.00;99.90;;;;;;5026411;28;20049;-71
2021/01/16 07:01:11;;;;;;;16.63;7.23;;;0.00;99.90;;;;;;5026657;28;20169;-68
2021/01/16 07:03:42;;;;;;;13.80;6.07;;;0.00;99.90;;;;;;5023446;28;20057;-70
2021/01/16 07:06:10;;;;;;;14.93;6.67;;;-0.10;99.90;;;;;;5026626;28;20107;-71
2021/01/16 07:08:40;;;;;;;13.73;6.20;;;0.00;99.90;;;;;;5026480;28;20555;-73
2021/01/16 07:11:09;;;;;;;16.43;7.50;;;0.00;99.90;;;;;;5026953;28;20140;-68
2021/01/16 07:13:35;;;;;;;13.17;5.73;;;0.00;99.90;;;;;;5025209;28;20052;-69
2021/01/16 07:16:05;;;;;;;15.20;6.57;;;-0.10;99.90;;;;;;5012585;28;20416;-73
2021/01/16 07:18:34;;;;;;;13.00;5.63;;;-0.10;99.90;;;;;;5026247;28;20277;-73
2021/01/16 07:21:02;;;;;;;12.27;5.43;;;0.00;99.90;;;;;;5025696;28;20061;-69
2021/01/16 07:23:29;;;;;;;16.43;6.70;;;0.10;99.90;;;;;;5025388;28;20054;-72
2021/01/16 07:25:56;;;;;;;13.43;5.97;;;0.00;99.90;;;;;;5026008;28;20057;-70
2021/01/16 07:28:23;;;;;;;16.67;6.53;;;-0.10;99.90;;;;;;5026106;28;20392;-68
2021/01/16 07:30:51;;;;;;;15.87;6.13;;;-0.10;99.90;;;;;;5026620;28;20057;-69
2021/01/16 07:33:19;;;;;;;12.60;5.63;;;-0.20;99.90;;;;;;5024548;28;20145;-74
2021/01/16 07:35:50;;;;;;;13.47;6.17;;;-0.10;99.90;;;;;;5026229;28;20452;-68
2021/01/16 07:38:18;;;;;;;14.43;7.27;;;-0.10;99.90;;;;;;5025473;28;20049;-68
2021/01/16 07:40:56;;;;;;;12.37;5.90;;;-0.20;99.90;;;;;;5028882;28;20115;-65
2021/01/16 07:43:50;;;;;;;13.73;6.13;;;-0.10;99.90;;;;;;5024750;28;20085;-66
2021/01/16 07:46:20;;;;;;;14.87;6.13;;;0.00;99.90;;;;;;4996003;28;20206;-66
2021/01/16 07:48:50;;;;;;;18.47;7.33;;;0.00;99.90;;;;;;5005740;28;20053;-66
2021/01/16 07:51:18;;;;;;;17.03;6.80;;;-0.20;99.90;;;;;;5005536;28;20432;-66
2021/01/16 07:53:55;;;;;;;14.03;6.10;;;0.00;99.90;;;;;;5002739;28;20056;-66
2021/01/16 07:56:25;;;;;;;15.33;6.00;;;0.00;99.90;;;;;;5000945;28;20149;-66
2021/01/16 07:59:07;;;;;;;14.07;6.60;;;0.00;99.90;;;;;;5010462;28;20048;-66
2021/01/16 08:01:42;;;;;;;16.77;5.80;;;-0.10;99.90;;;;;;4997899;28;20671;-66
2021/01/16 08:04:22;;;;;;;12.27;5.73;;;-0.10;99.90;;;;;;4996122;28;20050;-66
2021/01/16 08:07:02;;;;;;;14.10;5.67;;;0.00;99.90;;;;;;5011880;28;20057;-66
2021/01/16 08:09:57;;;;;;;13.33;6.07;;;-0.10;99.90;;;;;;5007285;28;20104;-66
2021/01/16 08:12:25;;;;;;;11.67;5.50;;;0.00;99.90;;;;;;5002033;28;20660;-66
2021/01/16 08:14:53;;;;;;;14.23;6.77;;;0.10;99.90;;;;;;5000663;28;20500;-66
2021/01/16 08:17:22;;;;;;;14.30;6.73;;;0.10;99.90;;;;;;4986703;28;20512;-66
2021/01/16 08:20:09;;;;;;;13.03;5.93;;;0.10;99.90;;;;;;4998200;28;20128;-66
2021/01/16 08:22:38;;;;;;;13.85;6.20;;;0.10;99.90;;;;;;5004990;28;20061;-66
2021/01/16 08:25:07;;;;;;;14.67;6.27;;;0.10;99.90;;;;;;5003989;28;20076;-66
2021/01/16 08:27:35;;;;;;;14.03;6.43;;;0.10;99.90;;;;;;5006078;28;20061;-66
2021/01/16 08:30:12;;;;;;;17.17;7.07;;;0.20;99.90;;;;;;5004785;28;20054;-66
2021/01/16 08:33:00;;;;;;;16.80;6.60;;;0.10;99.90;;;;;;5003878;28;20057;-66
2021/01/16 08:35:28;;;;;;;15.33;6.37;;;0.20;99.90;;;;;;5004200;28;20046;-66
2021/01/16 08:38:23;;;;;;;14.10;6.23;;;0.40;99.90;;;;;;5004215;28;20108;-66
2021/01/16 08:41:02;;;;;;;15.97;6.27;;;0.40;99.90;;;;;;5004929;28;20274;-66
2021/01/16 08:43:34;;;;;;;16.33;7.03;;;0.40;99.90;;;;;;5002582;28;20141;-66
2021/01/16 08:46:12;;;;;;;17.83;6.97;;;0.30;99.90;;;;;;5005163;28;20112;-66
2021/01/16 08:48:42;;;;;;;15.63;7.03;;;0.30;99.90;;;;;;5009324;28;20050;-68
2021/01/16 08:51:29;;;;;;;14.80;6.43;;;0.40;99.90;;;;;;5005747;28;20053;-74
2021/01/16 08:54:15;;;;;;;14.18;6.13;;;0.40;99.90;;;;;;5004044;28;20470;-72
2021/01/16 08:56:43;;;;;;;13.33;6.07;;;0.50;99.90;;;;;;5006048;28;20058;-72
2021/01/16 08:59:15;;;;;;;13.47;6.03;;;0.50;99.90;;;;;;5005037;28;20058;-71
2021/01/16 09:01:42;;;;;;;14.67;6.20;;;0.60;99.90;;;;;;5006156;28;20046;-72
2021/01/16 09:04:19;;;;;;;13.67;6.13;;;0.60;99.90;;;;;;5004202;28;20046;-72
2021/01/16 09:06:50;;;;;;;15.97;6.80;;;0.70;99.90;;;;;;5027353;28;20061;-69
2021/01/16 09:09:26;;;;;;;11.53;5.50;;;0.70;99.90;;;;;;5027095;28;20385;-69
2021/01/16 09:12:10;;;;;;;12.98;6.13;;;0.60;99.90;;;;;;5024727;28;20080;-73
2021/01/16 09:14:38;;;;;;;13.87;6.27;;;0.60;99.90;;;;;;5023988;28;20655;-72
2021/01/16 09:17:23;;;;;;;12.33;5.87;;;0.70;99.90;;;;;;5025208;28;20093;-71
2021/01/16 09:19:57;;;;;;;12.43;5.77;;;0.50;99.90;;;;;;5024246;28;20061;-71
2021/01/16 09:22:26;;;;;;;14.43;6.23;;;0.60;99.90;;;;;;5023846;28;20049;-71
2021/01/16 09:24:55;;;;;;;15.53;7.17;;;0.60;99.90;;;;;;5025221;28;20050;-67
2021/01/16 09:27:23;;;;;;;12.53;5.80;;;0.60;99.90;;;;;;5024045;28;20189;-69
2021/01/16 09:29:56;;;;;;;12.90;6.10;;;0.50;99.90;;;;;;5024953;28;20045;-68
2021/01/16 09:32:34;;;;;;;16.77;6.53;;;0.60;99.90;;;;;;5023551;28;20472;-68
2021/01/16 09:35:02;;;;;;;16.00;6.10;;;0.60;99.90;;;;;;5016819;28;20056;-68
2021/01/16 09:37:30;;;;;;;13.93;6.37;;;0.40;99.90;;;;;;5011996;28;20507;-69
2021/01/16 09:40:05;;;;;;;13.27;6.37;;;0.40;99.90;;;;;;5011373;28;20533;-69
2021/01/16 09:42:43;;;;;;;15.37;7.07;;;0.50;99.90;;;;;;5006061;28;20049;-68
2021/01/16 09:45:10;;;;;;;15.63;6.73;;;0.60;99.90;;;;;;5006866;28;20053;-68
2021/01/16 09:47:52;;;;;;;14.60;6.50;;;0.50;99.90;;;;;;5006993;28;20488;-68
2021/01/16 09:50:21;;;;;;;12.93;6.33;;;0.50;99.90;;;;;;5006206;28;20310;-68
2021/01/16 09:52:52;;;;;;;13.43;6.37;;;0.60;99.90;;;;;;5005857;28;20104;-69
2021/01/16 09:55:31;;;;;;;16.20;6.67;;;0.60;99.90;;;;;;5006969;28;20081;-69
2021/01/16 09:57:58;;;;;;;14.10;6.30;;;0.60;99.90;;;;;;5006245;28;20046;-68
2021/01/16 10:00:30;;;;;;;14.63;6.60;;;0.40;99.90;;;;;;5005993;28;20056;-69
2021/01/16 10:03:06;;;;;;;14.23;6.50;;;0.50;99.90;;;;;;5005497;28;20100;-69
2021/01/16 10:05:35;;;;;;;16.03;6.53;;;0.50;99.90;;;;;;5017506;28;20049;-70
2021/01/16 10:08:02;;;;;;;14.60;6.33;;;0.40;99.90;;;;;;5025833;28;20496;-69
2021/01/16 10:10:43;;;;;;;14.80;6.27;;;0.30;99.90;;;;;;5025410;28;20084;-69
2021/01/16 10:13:11;;;;;;;12.67;5.60;;;0.40;99.90;;;;;;5025434;28;20072;-69
2021/01/16 10:16:01;;;;;;;13.13;5.93;;;0.30;99.90;;;;;;5026798;28;20112;-69
2021/01/16 10:18:31;;;;;;;12.83;6.47;;;0.30;99.90;;;;;;5025377;28;20052;-69
2021/01/16 10:21:03;;;;;;;11.47;5.70;;;0.30;99.90;;;;;;5025569;28;20049;-69
2021/01/16 10:23:30;;;;;;;15.57;6.10;;;0.40;99.90;;;;;;5024233;28;20046;-69
2021/01/16 10:26:16;;;;;;;13.20;6.17;;;0.40;99.90;;;;;;5024952;28;20049;-69
2021/01/16 10:29:19;;;;;;;11.27;5.47;;;0.30;99.90;;;;;;5025586;28;20053;-69
2021/01/16 10:31:46;;;;;;;11.83;6.20;;;0.40;99.90;;;;;;5025835;28;20291;-69
2021/01/16 10:34:14;;;;;;;15.10;5.77;;;0.40;99.90;;;;;;5007340;28;20057;-69
2021/01/16 10:36:41;;;;;;;11.30;5.57;;;0.40;99.90;;;;;;5005342;28;20061;-69
2021/01/16 10:39:12;;;;;;;12.43;6.07;;;0.40;99.90;;;;;;5004620;28;20050;-69
2021/01/16 10:41:41;;;;;;;11.73;5.83;;;0.40;99.90;;;;;;5006655;28;20056;-68
2021/01/16 10:44:10;;;;;;;13.53;6.17;;;0.40;99.90;;;;;;5006010;28;20050;-68
2021/01/16 10:46:41;;;;;;;12.10;5.93;;;0.30;99.90;;;;;;5006623;28;20053;-68
2021/01/16 10:49:13;;;;;;;13.60;5.20;;;0.20;99.90;;;;;;5007342;28;20099;-68
2021/01/16 10:51:41;;;;;;;11.53;5.60;;;0.40;99.90;;;;;;5007848;28;20061;-69
2021/01/16 10:54:08;;;;;;;12.37;5.73;;;0.20;99.90;;;;;;5007017;28;20058;-68
2021/01/16 10:56:35;;;;;;;12.80;5.60;;;0.20;99.90;;;;;;5007858;28;20133;-68
2021/01/16 10:59:09;;;;;;;11.20;5.80;;;0.20;99.90;;;;;;5006428;28;20413;-68
2021/01/16 11:01:53;;;;;;;12.13;5.20;;;0.20;99.90;;;;;;5006672;28;20081;-68
2021/01/16 11:04:22;;;;;;;10.60;4.83;;;0.00;99.90;;;;;;5000206;28;20057;-68
2021/01/16 11:06:51;;;;;;;13.23;5.37;;;0.20;99.90;;;;;;5005382;28;20050;-68
2021/01/16 11:09:53;;;;;;;11.83;4.93;;;0.20;99.90;;;;;;5006699;28;20054;-71
2021/01/16 11:12:26;;;;;;;13.00;5.60;;;0.40;99.90;;;;;;5006329;28;20053;-68
2021/01/16 11:14:54;;;;;;;13.23;5.27;;;0.30;99.90;;;;;;5006924;28;20128;-70
2021/01/16 11:17:41;;;;;;;12.30;4.93;;;0.20;99.90;;;;;;5008629;28;20050;-70
2021/01/16 11:20:18;;;;;;;12.98;5.20;;;0.30;99.90;;;;;;5006732;28;20089;-71
2021/01/16 11:22:49;;;;;;;;;;;0.40;99.90;;;;;;5005807;28;20473;-72
2021/01/16 11:25:39;;;;;;;10.70;4.43;;;0.30;99.90;;;;;;5006798;28;19922;-71
2021/01/16 11:28:08;;;;;;;10.87;4.93;;;0.40;99.90;;;;;;5006963;28;20053;-72
2021/01/16 11:30:44;;;;;;;11.40;4.87;;;0.30;99.90;;;;;;5012464;28;20248;-69
2021/01/16 11:33:16;;;;;;;10.68;4.60;;;0.20;99.90;;;;;;5017529;28;20088;-69
2021/01/16 11:35:44;;;;;;;10.87;4.60;;;0.30;99.90;;;;;;5013571;28;20373;-69
2021/01/16 11:38:40;;;;;;;10.17;4.70;;;0.10;99.90;;;;;;5008938;28;20054;-69
2021/01/16 11:41:07;;;;;;;10.67;4.80;;;-0.30;99.90;;;;;;5010035;28;20545;-73
2021/01/16 11:43:34;;;;;;;11.13;4.73;;;0.00;99.90;;;;;;5011329;28;20048;-74
2021/01/16 11:46:06;;;;;;;11.27;4.67;;;-0.20;99.90;;;;;;5003183;28;20527;-69
2021/01/16 11:48:33;;;;;;;10.70;4.90;;;0.00;99.90;;;;;;5016865;28;20542;-71
2021/01/16 11:51:14;;;;;;;10.27;4.87;;;0.10;99.90;;;;;;5012998;28;20049;-70
2021/01/16 11:53:48;;;;;;;12.63;5.20;;;0.20;99.90;;;;;;5028401;28;20053;-74
2021/01/16 11:56:15;;;;;;;9.37;4.17;;;0.30;99.90;;;;;;5029245;28;20124;-73
2021/01/16 11:58:44;;;;;;;8.70;4.23;;;0.20;99.90;;;;;;5023407;28;20053;-69
2021/01/16 12:01:14;;;;;;;9.20;4.63;;;0.20;99.90;;;;;;5011078;28;20139;-69
2021/01/16 12:03:41;;;;;;;13.57;5.23;;;0.40;99.90;;;;;;5017987;28;20148;-70
2021/01/16 12:06:15;;;;;;;11.57;5.00;;;0.40;99.90;;;;;;5005615;28;20108;-75
2021/01/16 12:08:46;;;;;;;10.20;4.73;;;0.40;99.90;;;;;;5004666;28;20156;-74
2021/01/16 12:11:14;;;;;;;9.00;4.67;;;0.50;99.90;;;;;;5007464;28;20057;-71
2021/01/16 12:13:41;;;;;;;11.20;5.07;;;0.50;99.90;;;;;;5005004;28;20057;-71
2021/01/16 12:16:12;;;;;;;11.33;4.60;;;0.40;99.90;;;;;;5001296;28;20050;-73
2021/01/16 12:18:41;;;;;;;10.67;5.03;;;0.40;99.90;;;;;;5012105;28;20202;-70
2021/01/16 12:21:09;;;;;;;10.43;5.13;;;0.10;99.90;;;;;;5025623;28;20051;-71
2021/01/16 12:23:40;;;;;;;10.87;5.23;;;0.10;99.90;;;;;;5025319;28;20060;-68
2021/01/16 12:26:09;;;;;;;9.87;4.93;;;0.10;99.90;;;;;;5018104;28;20618;-68
2021/01/16 12:28:39;;;;;;;12.23;5.37;;;0.20;99.90;;;;;;5006563;28;20049;-68
2021/01/16 12:31:06;;;;;;;13.20;5.13;;;0.20;99.90;;;;;;4998896;28;20088;-68
2021/01/16 12:33:34;;;;;;;11.57;5.47;;;0.20;99.90;;;;;;4997837;28;20045;-68
2021/01/16 12:36:07;;;;;;;11.57;5.23;;;0.10;99.90;;;;;;4994410;28;20104;-68
2021/01/16 12:38:34;;;;;;;11.43;5.20;;;0.10;99.90;;;;;;5003049;28;20050;-69
2021/01/16 12:41:01;;;;;;;12.53;6.30;;;0.20;99.90;;;;;;4996628;28;20050;-68
2021/01/16 12:43:27;;;;;;;15.27;6.00;;;0.20;99.90;;;;;;4996356;28;20049;-68
2021/01/16 12:45:54;;;;;;;11.40;5.50;;;0.10;99.90;;;;;;4998440;28;20302;-68
2021/01/16 12:48:28;;;;;;;10.20;5.80;;;0.10;99.90;;;;;;4993501;28;20061;-68
2021/01/16 12:50:57;;;;;;;13.10;6.10;;;0.00;99.90;;;;;;4989162;28;20858;-68
2021/01/16 12:53:25;;;;;;;12.33;6.03;;;0.10;99.90;;;;;;4996566;28;20049;-70
2021/01/16 12:55:52;;;;;;;11.27;5.20;;;0.30;99.90;;;;;;4997541;28;20042;-68
2021/01/16 12:58:19;;;;;;;13.90;6.67;;;0.10;99.90;;;;;;5000063;28;20337;-69
2021/01/16 13:00:46;;;;;;;11.93;5.97;;;0.10;99.90;;;;;;5001771;28;20145;-68
2021/01/16 13:03:12;;;;;;;11.97;5.57;;;0.10;99.90;;;;;;5004165;28;20050;-68